createdAt,value
2017-08-03T00:00:48.252Z,233
2017-08-03T00:01:55.740Z,233
2017-08-03T00:03:03.222Z,233
2017-08-03T00:04:10.703Z,233
2017-08-03T00:05:17.899Z,233
2017-08-03T00:06:25.686Z,232
2017-08-03T00:07:33.190Z,232
2017-08-03T00:08:40.670Z,232
2017-08-03T00:09:48.153Z,233
2017-08-03T00:10:55.642Z,232
2017-08-03T00:12:03.420Z,233
2017-08-03T00:13:10.574Z,233
2017-08-03T00:14:18.050Z,233
2017-08-03T00:15:25.532Z,233
2017-08-03T00:16:33.009Z,233
2017-08-03T00:17:40.787Z,233
2017-08-03T00:18:48.273Z,232
2017-08-03T00:19:55.764Z,233
2017-08-03T00:21:02.910Z,233
2017-08-03T00:22:10.413Z,233
2017-08-03T00:23:18.195Z,233
2017-08-03T00:24:25.711Z,233
2017-08-03T00:25:33.197Z,233
2017-08-03T00:26:40.706Z,233
2017-08-03T00:27:48.187Z,233
2017-08-03T00:28:55.971Z,233
2017-08-03T00:30:03.451Z,233
2017-08-03T00:31:10.930Z,233
2017-08-03T00:32:18.410Z,234
2017-08-03T00:33:25.238Z,234
2017-08-03T00:34:33.020Z,234
2017-08-03T00:35:40.499Z,234
2017-08-03T00:36:47.659Z,233
2017-08-03T00:37:55.144Z,234
2017-08-03T00:39:02.634Z,233
2017-08-03T00:40:10.418Z,233
2017-08-03T00:41:17.903Z,234
2017-08-03T00:42:25.387Z,233
2017-08-03T00:43:32.863Z,233
2017-08-03T00:44:40.350Z,234
2017-08-03T00:45:48.139Z,233
2017-08-03T00:46:55.624Z,234
2017-08-03T00:48:03.109Z,234
2017-08-03T00:49:10.599Z,234
2017-08-03T00:50:17.754Z,234
2017-08-03T00:51:25.199Z,233
2017-08-03T00:52:32.681Z,233
2017-08-03T00:53:40.158Z,233
2017-08-03T00:54:47.640Z,234
2017-08-03T00:55:55.127Z,234
2017-08-03T00:57:02.581Z,234
2017-08-03T00:58:09.734Z,234
2017-08-03T00:59:17.218Z,234
2017-08-03T01:00:24.704Z,234
2017-08-03T01:01:32.180Z,233
2017-08-03T01:02:39.977Z,234
2017-08-03T01:03:47.135Z,234
2017-08-03T01:04:55.422Z,234
2017-08-03T01:06:02.910Z,234
2017-08-03T01:07:10.385Z,234
2017-08-03T01:08:18.176Z,233
2017-08-03T01:09:25.661Z,234
2017-08-03T01:10:33.145Z,234
2017-08-03T01:11:40.693Z,234
2017-08-03T01:12:47.849Z,233
2017-08-03T01:13:55.309Z,234
2017-08-03T01:15:02.790Z,234
2017-08-03T01:16:10.277Z,234
2017-08-03T01:17:17.426Z,233
2017-08-03T01:18:24.909Z,234
2017-08-03T01:19:32.707Z,233
2017-08-03T01:20:40.190Z,233
2017-08-03T01:21:47.358Z,234
2017-08-03T01:22:54.512Z,233
2017-08-03T01:24:01.992Z,233
2017-08-03T01:25:09.784Z,233
2017-08-03T01:26:31.844Z,233
2017-08-03T01:27:39.324Z,234
2017-08-03T01:28:46.808Z,233
2017-08-03T01:29:54.294Z,233
2017-08-03T01:31:02.079Z,234
2017-08-03T01:32:09.564Z,233
2017-08-03T01:33:17.045Z,233
2017-08-03T01:34:24.521Z,233
2017-08-03T01:35:31.677Z,234
2017-08-03T01:36:39.500Z,234
2017-08-03T01:37:46.975Z,233
2017-08-03T01:38:54.451Z,234
2017-08-03T01:40:01.936Z,233
2017-08-03T01:41:09.409Z,234
2017-08-03T01:42:16.523Z,233
2017-08-03T01:43:24.008Z,234
2017-08-03T01:44:31.162Z,234
2017-08-03T01:45:37.974Z,233
2017-08-03T01:46:45.460Z,234
2017-08-03T01:47:53.239Z,234
2017-08-03T01:49:00.715Z,233
2017-08-03T01:50:08.207Z,233
2017-08-03T01:51:15.684Z,234
2017-08-03T01:52:23.166Z,234
2017-08-03T01:53:30.961Z,233
2017-08-03T01:54:38.448Z,233
2017-08-03T01:55:45.614Z,233
2017-08-03T01:56:53.109Z,234
2017-08-03T01:58:00.588Z,233
2017-08-03T01:59:08.398Z,234
2017-08-03T02:00:15.886Z,234
2017-08-03T02:01:23.368Z,234
2017-08-03T02:02:30.849Z,234
2017-08-03T02:03:37.998Z,234
2017-08-03T02:04:45.774Z,234
2017-08-03T02:05:53.261Z,233
2017-08-03T02:07:00.413Z,233
2017-08-03T02:08:07.898Z,233
2017-08-03T02:09:15.385Z,233
2017-08-03T02:10:22.850Z,234
2017-08-03T02:11:30.336Z,233
2017-08-03T02:12:37.151Z,233
2017-08-03T02:13:44.628Z,233
2017-08-03T02:14:52.104Z,234
2017-08-03T02:15:59.884Z,233
2017-08-03T02:17:07.370Z,233
2017-08-03T02:18:14.852Z,233
2017-08-03T02:19:22.334Z,233
2017-08-03T02:20:29.821Z,234
2017-08-03T02:21:37.594Z,233
2017-08-03T02:22:44.742Z,233
2017-08-03T02:23:51.894Z,234
2017-08-03T02:24:59.377Z,234
2017-08-03T02:26:06.874Z,234
2017-08-03T02:27:14.665Z,234
2017-08-03T02:28:22.153Z,234
2017-08-03T02:29:29.638Z,234
2017-08-03T02:30:37.128Z,234
2017-08-03T02:31:44.609Z,234
2017-08-03T02:32:52.389Z,233
2017-08-03T02:33:59.871Z,234
2017-08-03T02:35:07.352Z,234
2017-08-03T02:36:14.831Z,234
2017-08-03T02:37:36.569Z,234
2017-08-03T02:38:44.347Z,234
2017-08-03T02:39:51.831Z,234
2017-08-03T02:40:58.984Z,234
2017-08-03T02:42:06.498Z,234
2017-08-03T02:43:13.653Z,234
2017-08-03T02:44:21.446Z,234
2017-08-03T02:45:28.926Z,234
2017-08-03T02:46:36.405Z,234
2017-08-03T02:47:43.559Z,234
2017-08-03T02:48:51.037Z,234
2017-08-03T02:49:58.829Z,234
2017-08-03T02:51:06.318Z,235
2017-08-03T02:52:13.797Z,234
2017-08-03T02:53:20.946Z,234
2017-08-03T02:54:28.425Z,234
2017-08-03T02:55:36.212Z,234
2017-08-03T02:56:43.693Z,234
2017-08-03T02:57:50.842Z,234
2017-08-03T02:58:58.325Z,234
2017-08-03T03:00:05.814Z,234
2017-08-03T03:01:14.179Z,234
2017-08-03T03:02:21.650Z,234
2017-08-03T03:03:29.131Z,234
2017-08-03T03:04:36.636Z,234
2017-08-03T03:05:44.128Z,235
2017-08-03T03:06:51.918Z,235
2017-08-03T03:07:59.388Z,235
2017-08-03T03:09:06.880Z,234
2017-08-03T03:10:14.361Z,234
2017-08-03T03:11:21.836Z,234
2017-08-03T03:12:29.664Z,235
2017-08-03T03:13:37.149Z,234
2017-08-03T03:14:44.630Z,234
2017-08-03T03:15:51.783Z,234
2017-08-03T03:16:59.265Z,235
2017-08-03T03:18:06.730Z,235
2017-08-03T03:19:13.886Z,234
2017-08-03T03:20:21.054Z,234
2017-08-03T03:21:28.206Z,234
2017-08-03T03:22:35.686Z,234
2017-08-03T03:23:43.188Z,235
2017-08-03T03:24:50.344Z,234
2017-08-03T03:25:57.833Z,234
2017-08-03T03:27:05.314Z,234
2017-08-03T03:28:12.462Z,234
2017-08-03T03:29:19.587Z,234
2017-08-03T03:30:27.078Z,234
2017-08-03T03:31:34.557Z,234
2017-08-03T03:32:42.037Z,234
2017-08-03T03:33:49.520Z,234
2017-08-03T03:34:57.298Z,234
2017-08-03T03:36:04.773Z,234
2017-08-03T03:37:12.256Z,234
2017-08-03T03:38:19.749Z,234
2017-08-03T03:39:27.248Z,234
2017-08-03T03:40:34.745Z,234
2017-08-03T03:41:42.238Z,234
2017-08-03T03:42:49.398Z,234
2017-08-03T03:43:56.882Z,234
2017-08-03T03:45:04.363Z,234
2017-08-03T03:46:12.145Z,234
2017-08-03T03:47:19.632Z,234
2017-08-03T03:48:27.135Z,235
2017-08-03T03:49:34.604Z,234
2017-08-03T03:50:42.096Z,235
2017-08-03T03:51:49.955Z,234
2017-08-03T03:52:57.439Z,234
2017-08-03T03:54:04.920Z,234
2017-08-03T03:55:12.405Z,234
2017-08-03T03:56:19.889Z,235
2017-08-03T03:57:27.674Z,234
2017-08-03T03:58:35.162Z,234
2017-08-03T03:59:42.322Z,235
2017-08-03T04:00:49.803Z,235
2017-08-03T04:01:57.308Z,235
2017-08-03T04:03:04.774Z,235
2017-08-03T04:04:12.260Z,234
2017-08-03T04:05:19.412Z,234
2017-08-03T04:06:26.565Z,234
2017-08-03T04:07:34.351Z,234
2017-08-03T04:08:41.849Z,234
2017-08-03T04:09:49.329Z,235
2017-08-03T04:10:56.811Z,234
2017-08-03T04:12:04.304Z,234
2017-08-03T04:13:12.085Z,235
2017-08-03T04:14:19.567Z,235
2017-08-03T04:15:26.742Z,235
2017-08-03T04:16:34.224Z,235
2017-08-03T04:17:41.699Z,235
2017-08-03T04:18:49.530Z,235
2017-08-03T04:19:57.007Z,234
2017-08-03T04:21:04.487Z,234
2017-08-03T04:22:11.971Z,235
2017-08-03T04:23:19.118Z,235
2017-08-03T04:24:26.903Z,234
2017-08-03T04:25:34.388Z,235
2017-08-03T04:26:41.870Z,235
2017-08-03T04:27:49.356Z,235
2017-08-03T04:28:56.854Z,235
2017-08-03T04:30:04.632Z,234
2017-08-03T04:31:12.120Z,235
2017-08-03T04:32:19.601Z,234
2017-08-03T04:33:27.079Z,234
2017-08-03T04:34:34.562Z,234
2017-08-03T04:35:42.393Z,235
2017-08-03T04:36:49.875Z,235
2017-08-03T04:37:57.357Z,235
2017-08-03T04:39:04.838Z,235
2017-08-03T04:40:12.326Z,235
2017-08-03T04:41:20.113Z,235
2017-08-03T04:42:27.592Z,235
2017-08-03T04:43:35.912Z,234
2017-08-03T04:44:43.391Z,220
2017-08-03T04:45:50.869Z,220
2017-08-03T04:46:58.653Z,225
2017-08-03T04:48:05.799Z,228
2017-08-03T04:49:13.276Z,228
2017-08-03T04:50:20.758Z,228
2017-08-03T04:51:28.237Z,226
2017-08-03T04:52:36.063Z,225
2017-08-03T04:53:43.547Z,218
2017-08-03T04:54:51.028Z,212
2017-08-03T04:55:58.183Z,208
2017-08-03T04:57:05.662Z,206
2017-08-03T04:58:13.440Z,200
2017-08-03T04:59:20.965Z,197
2017-08-03T05:00:28.448Z,193
2017-08-03T05:01:35.946Z,183
2017-08-03T05:02:43.100Z,180
2017-08-03T05:03:50.585Z,179
2017-08-03T05:04:58.070Z,177
2017-08-03T05:06:05.548Z,177
2017-08-03T05:07:13.034Z,176
2017-08-03T05:08:20.189Z,176
2017-08-03T05:09:27.969Z,176
2017-08-03T05:10:35.453Z,176
2017-08-03T05:11:42.941Z,176
2017-08-03T05:12:50.055Z,176
2017-08-03T05:13:57.538Z,175
2017-08-03T05:15:05.325Z,175
2017-08-03T05:16:12.817Z,174
2017-08-03T05:17:19.963Z,175
2017-08-03T05:18:27.448Z,173
2017-08-03T05:19:34.928Z,170
2017-08-03T05:20:42.713Z,170
2017-08-03T05:21:50.202Z,170
2017-08-03T05:22:57.703Z,170
2017-08-03T05:24:05.180Z,171
2017-08-03T05:25:12.654Z,171
2017-08-03T05:26:20.130Z,171
2017-08-03T05:27:27.610Z,171
2017-08-03T05:28:34.439Z,171
2017-08-03T05:29:41.591Z,170
2017-08-03T05:30:49.069Z,170
2017-08-03T05:31:56.850Z,169
2017-08-03T05:33:04.336Z,168
2017-08-03T05:34:11.485Z,167
2017-08-03T05:35:18.985Z,166
2017-08-03T05:36:26.464Z,165
2017-08-03T05:37:34.259Z,164
2017-08-03T05:38:41.450Z,163
2017-08-03T05:39:50.314Z,162
2017-08-03T05:40:57.791Z,161
2017-08-03T05:42:05.281Z,160
2017-08-03T05:43:12.767Z,160
2017-08-03T05:44:19.929Z,159
2017-08-03T05:45:27.419Z,159
2017-08-03T05:46:34.900Z,158
2017-08-03T05:47:42.381Z,157
2017-08-03T05:48:49.839Z,157
2017-08-03T05:49:57.319Z,156
2017-08-03T05:51:04.803Z,155
2017-08-03T05:52:12.283Z,154
2017-08-03T05:53:19.441Z,154
2017-08-03T05:54:27.220Z,155
2017-08-03T05:55:34.694Z,155
2017-08-03T05:56:41.870Z,154
2017-08-03T05:57:49.351Z,154
2017-08-03T05:58:56.866Z,153
2017-08-03T06:00:04.653Z,153
2017-08-03T06:01:11.799Z,153
2017-08-03T06:02:19.285Z,153
2017-08-03T06:03:26.773Z,153
2017-08-03T06:04:34.253Z,153
2017-08-03T06:05:41.737Z,153
2017-08-03T06:06:49.219Z,153
2017-08-03T06:07:56.702Z,153
2017-08-03T06:09:04.199Z,153
2017-08-03T06:10:11.684Z,152
2017-08-03T06:11:19.464Z,152
2017-08-03T06:12:26.624Z,152
2017-08-03T06:13:33.775Z,152
2017-08-03T06:14:41.255Z,153
2017-08-03T06:15:48.738Z,153
2017-08-03T06:16:56.192Z,153
2017-08-03T06:18:03.683Z,153
2017-08-03T06:19:11.178Z,152
2017-08-03T06:20:18.671Z,152
2017-08-03T06:21:26.171Z,152
2017-08-03T06:22:33.658Z,152
2017-08-03T06:23:41.140Z,153
2017-08-03T06:24:48.618Z,152
2017-08-03T06:25:56.100Z,152
2017-08-03T06:27:03.582Z,152
2017-08-03T06:28:11.370Z,152
2017-08-03T06:29:18.848Z,151
2017-08-03T06:30:26.327Z,151
2017-08-03T06:31:33.807Z,152
2017-08-03T06:32:41.290Z,151
2017-08-03T06:33:49.075Z,151
2017-08-03T06:34:56.561Z,151
2017-08-03T06:36:04.041Z,151
2017-08-03T06:37:11.524Z,151
2017-08-03T06:38:18.909Z,152
2017-08-03T06:39:26.367Z,151
2017-08-03T06:40:33.525Z,151
2017-08-03T06:41:41.018Z,151
2017-08-03T06:42:48.504Z,151
2017-08-03T06:43:55.987Z,151
2017-08-03T06:45:03.134Z,151
2017-08-03T06:46:10.845Z,151
2017-08-03T06:47:18.331Z,151
2017-08-03T06:48:25.811Z,151
2017-08-03T06:49:33.293Z,151
2017-08-03T06:50:41.074Z,151
2017-08-03T06:51:48.233Z,151
2017-08-03T06:52:55.720Z,151
2017-08-03T06:54:02.874Z,151
2017-08-03T06:55:10.364Z,151
2017-08-03T06:56:17.867Z,151
2017-08-03T06:57:25.347Z,151
2017-08-03T06:58:32.866Z,151
2017-08-03T06:59:40.347Z,151
2017-08-03T07:00:47.828Z,151
2017-08-03T07:01:55.677Z,151
2017-08-03T07:03:02.831Z,151
2017-08-03T07:04:10.316Z,151
2017-08-03T07:05:17.800Z,151
2017-08-03T07:06:25.366Z,151
2017-08-03T07:07:33.143Z,151
2017-08-03T07:08:40.625Z,151
2017-08-03T07:09:48.115Z,152
2017-08-03T07:10:55.267Z,152
2017-08-03T07:12:02.749Z,152
2017-08-03T07:13:10.592Z,152
2017-08-03T07:14:18.108Z,152
2017-08-03T07:15:25.820Z,152
2017-08-03T07:16:33.307Z,152
2017-08-03T07:17:40.793Z,152
2017-08-03T07:18:48.247Z,152
2017-08-03T07:19:55.725Z,151
2017-08-03T07:21:03.222Z,152
2017-08-03T07:22:10.384Z,152
2017-08-03T07:23:17.875Z,151
2017-08-03T07:24:25.701Z,152
2017-08-03T07:25:33.187Z,152
2017-08-03T07:28:02.745Z,151
2017-08-03T07:29:10.232Z,151
2017-08-03T07:30:18.016Z,151
2017-08-03T07:31:25.502Z,151
2017-08-03T07:32:33.138Z,151
2017-08-03T07:33:40.636Z,151
2017-08-03T07:34:48.150Z,151
2017-08-03T07:35:55.934Z,152
2017-08-03T07:37:03.416Z,152
2017-08-03T07:38:10.907Z,152
2017-08-03T07:39:18.397Z,152
2017-08-03T07:40:25.883Z,152
2017-08-03T07:41:33.725Z,152
2017-08-03T07:42:40.874Z,152
2017-08-03T07:43:48.359Z,152
2017-08-03T07:44:55.836Z,152
2017-08-03T07:46:03.342Z,151
2017-08-03T07:47:11.127Z,151
2017-08-03T07:48:18.614Z,151
2017-08-03T07:49:26.098Z,152
2017-08-03T07:50:33.581Z,152
2017-08-03T07:51:41.220Z,152
2017-08-03T07:52:49.050Z,153
2017-08-03T07:53:55.889Z,153
2017-08-03T07:55:03.374Z,153
2017-08-03T07:56:10.857Z,153
2017-08-03T07:57:18.342Z,153
2017-08-03T07:58:26.119Z,153
2017-08-03T07:59:33.606Z,154
2017-08-03T08:00:41.097Z,154
2017-08-03T08:01:48.588Z,154
2017-08-03T08:02:56.072Z,154
2017-08-03T08:04:03.853Z,154
2017-08-03T08:05:11.003Z,154
2017-08-03T08:06:18.490Z,156
2017-08-03T08:07:25.666Z,158
2017-08-03T08:08:33.144Z,160
2017-08-03T08:09:40.934Z,163
2017-08-03T08:10:48.418Z,165
2017-08-03T08:11:55.575Z,166
2017-08-03T08:13:03.079Z,167
2017-08-03T08:14:10.225Z,168
2017-08-03T08:15:18.058Z,169
2017-08-03T08:16:26.544Z,170
2017-08-03T08:17:34.028Z,170
2017-08-03T08:18:41.510Z,174
2017-08-03T08:19:48.669Z,175
2017-08-03T08:20:56.499Z,175
2017-08-03T08:22:03.985Z,181
2017-08-03T08:23:11.465Z,177
2017-08-03T08:24:18.939Z,179
2017-08-03T08:25:26.429Z,182
2017-08-03T08:26:34.215Z,182
2017-08-03T08:27:41.703Z,182
2017-08-03T08:28:49.266Z,182
2017-08-03T08:29:56.427Z,182
2017-08-03T08:31:03.911Z,182
2017-08-03T08:32:11.701Z,183
2017-08-03T08:33:33.740Z,183
2017-08-03T08:34:41.222Z,183
2017-08-03T08:35:48.378Z,183
2017-08-03T08:36:55.525Z,183
2017-08-03T08:38:03.376Z,183
2017-08-03T08:39:10.845Z,183
2017-08-03T08:40:18.328Z,183
2017-08-03T08:41:25.819Z,184
2017-08-03T08:42:33.300Z,184
2017-08-03T08:43:41.135Z,184
2017-08-03T08:44:48.620Z,184
2017-08-03T08:45:56.105Z,184
2017-08-03T08:47:03.592Z,184
2017-08-03T08:48:10.932Z,184
2017-08-03T08:49:18.795Z,184
2017-08-03T08:50:26.280Z,184
2017-08-03T08:51:33.446Z,184
2017-08-03T08:52:40.953Z,185
2017-08-03T08:53:48.462Z,185
2017-08-03T08:54:56.252Z,185
2017-08-03T08:56:03.743Z,185
2017-08-03T08:57:11.231Z,185
2017-08-03T08:58:18.372Z,185
2017-08-03T08:59:25.857Z,185
2017-08-03T09:00:33.694Z,185
2017-08-03T09:01:41.180Z,186
2017-08-03T09:02:48.665Z,186
2017-08-03T09:03:56.154Z,186
2017-08-03T09:05:03.637Z,186
2017-08-03T09:06:11.468Z,186
2017-08-03T09:07:18.955Z,186
2017-08-03T09:08:26.125Z,186
2017-08-03T09:09:33.620Z,186
2017-08-03T09:10:41.110Z,186
2017-08-03T09:11:48.618Z,187
2017-08-03T09:12:55.776Z,187
2017-08-03T09:14:03.267Z,187
2017-08-03T09:15:10.749Z,187
2017-08-03T09:16:18.237Z,187
2017-08-03T09:17:26.069Z,188
2017-08-03T09:18:33.549Z,188
2017-08-03T09:19:41.030Z,187
2017-08-03T09:20:48.522Z,187
2017-08-03T09:21:56.005Z,187
2017-08-03T09:23:03.458Z,188
2017-08-03T09:24:10.610Z,188
2017-08-03T09:25:18.097Z,188
2017-08-03T09:26:25.588Z,188
2017-08-03T09:27:33.102Z,188
2017-08-03T09:28:40.607Z,188
2017-08-03T09:29:48.110Z,189
2017-08-03T09:30:55.286Z,189
2017-08-03T09:32:02.797Z,189
2017-08-03T09:33:10.283Z,189
2017-08-03T09:34:17.456Z,189
2017-08-03T09:35:24.934Z,189
2017-08-03T09:36:32.412Z,189
2017-08-03T09:37:39.567Z,189
2017-08-03T09:38:47.057Z,190
2017-08-03T09:39:54.894Z,188
2017-08-03T09:41:02.373Z,187
2017-08-03T09:42:09.882Z,182
2017-08-03T09:43:17.038Z,178
2017-08-03T09:44:24.520Z,177
2017-08-03T09:45:32.357Z,176
2017-08-03T09:46:40.568Z,175
2017-08-03T09:47:48.048Z,174
2017-08-03T09:48:55.216Z,173
2017-08-03T09:50:02.708Z,173
2017-08-03T09:51:10.550Z,173
2017-08-03T09:52:18.035Z,173
2017-08-03T09:53:25.518Z,173
2017-08-03T09:54:32.358Z,174
2017-08-03T09:55:39.846Z,174
2017-08-03T09:56:47.332Z,174
2017-08-03T09:57:54.819Z,173
2017-08-03T09:59:02.313Z,174
2017-08-03T10:00:10.103Z,173
2017-08-03T10:01:17.588Z,174
2017-08-03T10:02:25.079Z,173
2017-08-03T10:03:32.565Z,173
2017-08-03T10:04:39.391Z,173
2017-08-03T10:05:47.190Z,174
2017-08-03T10:06:54.671Z,174
2017-08-03T10:08:02.159Z,175
2017-08-03T10:09:09.642Z,175
2017-08-03T10:10:17.318Z,175
2017-08-03T10:11:25.110Z,176
2017-08-03T10:12:32.631Z,176
2017-08-03T10:13:40.106Z,177
2017-08-03T10:14:47.592Z,177
2017-08-03T10:15:54.427Z,183
2017-08-03T10:17:02.259Z,184
2017-08-03T10:18:09.752Z,185
2017-08-03T10:19:17.234Z,186
2017-08-03T10:20:24.383Z,187
2017-08-03T10:21:31.867Z,187
2017-08-03T10:22:39.696Z,188
2017-08-03T10:23:46.848Z,189
2017-08-03T10:24:54.334Z,190
2017-08-03T10:26:01.829Z,190
2017-08-03T10:27:09.210Z,191
2017-08-03T10:28:16.729Z,192
2017-08-03T10:29:23.880Z,192
2017-08-03T10:30:31.041Z,193
2017-08-03T10:31:38.245Z,193
2017-08-03T10:32:45.067Z,194
2017-08-03T10:33:52.907Z,194
2017-08-03T10:35:00.395Z,195
2017-08-03T10:36:07.877Z,194
2017-08-03T10:37:15.361Z,195
2017-08-03T10:38:22.507Z,195
2017-08-03T10:39:29.960Z,194
2017-08-03T10:40:37.441Z,195
2017-08-03T10:41:44.925Z,195
2017-08-03T10:42:52.417Z,195
2017-08-03T10:43:59.899Z,195
2017-08-03T10:45:07.692Z,195
2017-08-03T10:46:15.175Z,195
2017-08-03T10:47:22.343Z,195
2017-08-03T10:48:29.854Z,196
2017-08-03T10:49:37.335Z,195
2017-08-03T10:50:44.881Z,196
2017-08-03T10:51:52.392Z,195
2017-08-03T10:52:59.912Z,195
2017-08-03T10:54:07.399Z,196
2017-08-03T10:55:14.884Z,196
2017-08-03T10:56:22.389Z,196
2017-08-03T10:57:29.873Z,196
2017-08-03T10:58:37.039Z,196
2017-08-03T10:59:44.521Z,196
2017-08-03T11:00:52.021Z,196
2017-08-03T11:01:59.854Z,196
2017-08-03T11:03:07.343Z,197
2017-08-03T11:04:14.504Z,197
2017-08-03T11:05:21.663Z,197
2017-08-03T11:06:29.139Z,197
2017-08-03T11:07:37.133Z,197
2017-08-03T11:08:44.291Z,197
2017-08-03T11:09:51.454Z,198
2017-08-03T11:10:58.936Z,197
2017-08-03T11:12:06.095Z,197
2017-08-03T11:13:13.877Z,197
2017-08-03T11:14:21.359Z,197
2017-08-03T11:15:28.505Z,198
2017-08-03T11:16:36.007Z,198
2017-08-03T11:17:43.163Z,198
2017-08-03T11:18:50.326Z,198
2017-08-03T11:19:57.490Z,199
2017-08-03T11:21:04.976Z,199
2017-08-03T11:22:12.462Z,199
2017-08-03T11:23:20.252Z,199
2017-08-03T11:24:27.745Z,199
2017-08-03T11:25:35.482Z,199
2017-08-03T11:26:42.966Z,200
2017-08-03T11:27:50.122Z,199
2017-08-03T11:28:57.928Z,200
2017-08-03T11:30:05.410Z,200
2017-08-03T11:31:13.018Z,200
2017-08-03T11:32:20.504Z,200
2017-08-03T11:33:27.999Z,200
2017-08-03T11:34:35.783Z,200
2017-08-03T11:35:43.505Z,200
2017-08-03T11:36:50.665Z,201
2017-08-03T11:37:57.821Z,201
2017-08-03T11:39:05.307Z,201
2017-08-03T11:40:12.769Z,201
2017-08-03T11:41:20.256Z,202
2017-08-03T11:42:27.747Z,202
2017-08-03T11:43:35.242Z,201
2017-08-03T11:44:42.748Z,202
2017-08-03T11:45:50.264Z,202
2017-08-03T11:46:57.423Z,203
2017-08-03T11:48:04.912Z,203
2017-08-03T11:49:12.399Z,203
2017-08-03T11:50:19.589Z,203
2017-08-03T11:51:27.372Z,203
2017-08-03T11:52:34.851Z,203
2017-08-03T11:53:42.344Z,203
2017-08-03T11:54:49.497Z,203
2017-08-03T11:55:56.984Z,203
2017-08-03T11:57:04.447Z,203
2017-08-03T11:58:11.602Z,203
2017-08-03T11:59:19.087Z,204
2017-08-03T12:00:26.576Z,204
2017-08-03T12:01:33.739Z,203
2017-08-03T12:02:41.221Z,204
2017-08-03T12:03:48.716Z,204
2017-08-03T12:04:56.207Z,203
2017-08-03T12:06:03.702Z,204
2017-08-03T12:07:11.193Z,204
2017-08-03T12:08:18.985Z,204
2017-08-03T12:09:26.467Z,204
2017-08-03T12:10:33.634Z,204
2017-08-03T12:11:41.124Z,205
2017-08-03T12:12:48.280Z,204
2017-08-03T12:13:55.739Z,204
2017-08-03T12:15:02.908Z,205
2017-08-03T12:16:10.396Z,204
2017-08-03T12:17:17.877Z,205
2017-08-03T12:18:25.042Z,205
2017-08-03T12:19:32.503Z,205
2017-08-03T12:20:39.999Z,205
2017-08-03T12:21:47.491Z,205
2017-08-03T12:22:54.649Z,206
2017-08-03T12:24:02.134Z,205
2017-08-03T12:25:09.619Z,206
2017-08-03T12:26:17.105Z,206
2017-08-03T12:27:24.267Z,206
2017-08-03T12:28:31.795Z,206
2017-08-03T12:29:39.290Z,206
2017-08-03T12:30:46.915Z,207
2017-08-03T12:31:54.070Z,206
2017-08-03T12:33:01.560Z,206
2017-08-03T12:34:08.718Z,206
2017-08-03T12:35:16.201Z,207
2017-08-03T12:36:23.448Z,207
2017-08-03T12:37:30.937Z,207
2017-08-03T12:38:38.423Z,207
2017-08-03T12:39:45.908Z,207
2017-08-03T12:40:53.063Z,207
2017-08-03T12:42:00.649Z,207
2017-08-03T12:43:08.138Z,207
2017-08-03T12:44:15.630Z,207
2017-08-03T12:45:23.118Z,208
2017-08-03T12:46:30.607Z,207
2017-08-03T12:47:38.194Z,208
2017-08-03T12:48:45.682Z,208
2017-08-03T12:49:53.179Z,208
2017-08-03T12:51:00.684Z,208
2017-08-03T12:52:08.182Z,208
2017-08-03T12:53:15.964Z,209
2017-08-03T12:54:23.473Z,209
2017-08-03T12:55:30.959Z,209
2017-08-03T12:56:38.456Z,209
2017-08-03T12:57:45.618Z,209
2017-08-03T12:58:53.357Z,209
2017-08-03T13:00:00.848Z,209
2017-08-03T13:01:08.330Z,210
2017-08-03T13:02:15.493Z,210
2017-08-03T13:03:22.649Z,210
2017-08-03T13:04:29.805Z,209
2017-08-03T13:05:37.294Z,210
2017-08-03T13:06:44.786Z,210
2017-08-03T13:07:51.945Z,210
2017-08-03T13:08:59.139Z,210
2017-08-03T13:10:06.540Z,210
2017-08-03T13:11:14.045Z,210
2017-08-03T13:12:21.546Z,210
2017-08-03T13:13:29.038Z,210
2017-08-03T13:14:36.193Z,210
2017-08-03T13:15:43.623Z,210
2017-08-03T13:16:51.114Z,210
2017-08-03T13:17:58.266Z,209
2017-08-03T13:19:05.761Z,208
2017-08-03T13:20:12.932Z,208
2017-08-03T13:21:20.731Z,209
2017-08-03T13:22:27.888Z,208
2017-08-03T13:23:35.369Z,208
2017-08-03T13:24:42.858Z,209
2017-08-03T13:25:50.348Z,209
2017-08-03T13:26:57.834Z,209
2017-08-03T13:28:05.326Z,209
2017-08-03T13:29:12.495Z,209
2017-08-03T13:30:19.692Z,209
2017-08-03T13:31:27.148Z,207
2017-08-03T13:32:34.662Z,209
2017-08-03T13:33:41.490Z,208
2017-08-03T13:34:48.981Z,208
2017-08-03T13:35:56.156Z,208
2017-08-03T13:37:03.951Z,208
2017-08-03T13:38:11.439Z,208
2017-08-03T13:39:18.931Z,209
2017-08-03T13:40:26.417Z,208
2017-08-03T13:41:33.905Z,208
2017-08-03T13:42:41.693Z,209
2017-08-03T13:43:49.181Z,209
2017-08-03T13:44:56.351Z,208
2017-08-03T13:46:03.842Z,208
2017-08-03T13:47:11.004Z,208
2017-08-03T13:48:17.947Z,208
2017-08-03T13:49:25.708Z,208
2017-08-03T13:50:33.203Z,208
2017-08-03T13:51:40.362Z,208
2017-08-03T13:52:47.868Z,208
2017-08-03T13:53:55.027Z,209
2017-08-03T13:55:02.517Z,208
2017-08-03T13:56:10.008Z,208
2017-08-03T13:57:17.495Z,207
2017-08-03T13:58:24.662Z,208
2017-08-03T13:59:32.448Z,208
2017-08-03T14:00:39.607Z,208
2017-08-03T14:01:47.168Z,207
2017-08-03T14:02:54.660Z,207
2017-08-03T14:04:02.149Z,207
2017-08-03T14:05:09.744Z,207
2017-08-03T14:06:17.234Z,206
2017-08-03T14:07:24.728Z,206
2017-08-03T14:08:32.215Z,206
2017-08-03T14:09:39.720Z,206
2017-08-03T14:10:47.135Z,206
2017-08-03T14:11:54.622Z,206
2017-08-03T14:13:02.150Z,206
2017-08-03T14:14:09.516Z,206
2017-08-03T14:15:17.010Z,207
2017-08-03T14:16:24.616Z,207
2017-08-03T14:17:32.108Z,206
2017-08-03T14:18:39.604Z,207
2017-08-03T14:19:47.103Z,207
2017-08-03T14:20:54.595Z,207
2017-08-03T14:22:02.190Z,207
2017-08-03T14:23:09.350Z,208
2017-08-03T14:24:16.844Z,207
2017-08-03T14:25:24.338Z,208
2017-08-03T14:26:31.824Z,208
2017-08-03T14:27:39.236Z,208
2017-08-03T14:28:46.727Z,208
2017-08-03T14:29:53.887Z,207
2017-08-03T14:31:01.380Z,207
2017-08-03T14:32:08.894Z,206
2017-08-03T14:33:16.509Z,207
2017-08-03T14:34:24.009Z,207
2017-08-03T14:35:31.174Z,208
2017-08-03T14:36:38.665Z,208
2017-08-03T14:37:45.823Z,208
2017-08-03T14:38:53.623Z,208
2017-08-03T14:40:01.111Z,208
2017-08-03T14:41:08.600Z,209
2017-08-03T14:42:15.765Z,208
2017-08-03T14:43:23.258Z,209
2017-08-03T14:44:31.052Z,208
2017-08-03T14:45:38.223Z,209
2017-08-03T14:46:45.386Z,208
2017-08-03T14:47:52.872Z,209
2017-08-03T14:49:00.362Z,208
2017-08-03T14:50:07.943Z,207
2017-08-03T14:51:15.474Z,207
2017-08-03T14:52:23.169Z,207
2017-08-03T14:53:30.033Z,208
2017-08-03T14:54:37.548Z,207
2017-08-03T14:55:45.149Z,207
2017-08-03T14:56:52.634Z,207
2017-08-03T14:58:00.121Z,207
2017-08-03T14:59:07.610Z,207
2017-08-03T15:00:15.098Z,207
2017-08-03T15:01:22.507Z,207
2017-08-03T15:02:29.991Z,207
2017-08-03T15:03:37.473Z,207
2017-08-03T15:04:44.958Z,207
2017-08-03T15:05:52.126Z,207
2017-08-03T15:06:59.917Z,207
2017-08-03T15:08:07.409Z,207
2017-08-03T15:09:14.889Z,207
2017-08-03T15:10:22.381Z,207
2017-08-03T15:11:29.547Z,207
2017-08-03T15:12:37.334Z,207
2017-08-03T15:13:44.828Z,207
2017-08-03T15:14:52.349Z,207
2017-08-03T15:15:59.834Z,207
2017-08-03T15:17:07.319Z,207
2017-08-03T15:18:15.111Z,207
2017-08-03T15:19:22.273Z,207
2017-08-03T15:20:29.761Z,207
2017-08-03T15:21:37.249Z,207
2017-08-03T15:22:44.745Z,207
2017-08-03T15:23:52.230Z,207
2017-08-03T15:24:59.722Z,207
2017-08-03T15:26:07.509Z,207
2017-08-03T15:27:14.664Z,207
2017-08-03T15:28:22.151Z,206
2017-08-03T15:29:29.659Z,207
2017-08-03T15:30:37.146Z,206
2017-08-03T15:31:44.992Z,206